createdAt,value
2018-12-09T00:00:04.020Z,5.82
2018-12-09T00:02:31.657Z,5.79
2018-12-09T00:04:59.211Z,5.83
2018-12-09T00:07:26.786Z,5.88
2018-12-09T00:09:54.465Z,5.90
2018-12-09T00:12:22.012Z,5.91
2018-12-09T00:14:49.609Z,5.95
2018-12-09T00:17:17.129Z,5.94
2018-12-09T00:19:44.701Z,5.99
2018-12-09T00:22:12.389Z,5.96
2018-12-09T00:24:40.675Z,5.97
2018-12-09T00:27:08.237Z,6.01
2018-12-09T00:29:35.789Z,6.09
2018-12-09T00:32:03.522Z,6.14
2018-12-09T00:34:32.303Z,6.22
2018-12-09T00:36:59.849Z,6.35
2018-12-09T00:39:27.477Z,6.43
2018-12-09T00:41:55.067Z,6.50
2018-12-09T00:44:23.310Z,6.58
2018-12-09T00:46:50.854Z,6.73
2018-12-09T00:49:18.445Z,6.82
2018-12-09T00:51:45.984Z,6.87
2018-12-09T00:54:13.509Z,6.95
2018-12-09T00:56:41.091Z,6.95
2018-12-09T00:59:08.622Z,6.96
2018-12-09T01:01:36.174Z,7.00
2018-12-09T01:04:03.763Z,7.07
2018-12-09T01:06:31.290Z,7.09
2018-12-09T01:08:58.825Z,7.12
2018-12-09T01:11:26.428Z,7.03
2018-12-09T01:13:53.957Z,7.08
2018-12-09T01:16:22.358Z,7.10
2018-12-09T01:18:49.894Z,7.10
2018-12-09T01:21:17.449Z,7.17
2018-12-09T01:23:45.229Z,7.18
2018-12-09T01:26:12.829Z,7.18
2018-12-09T01:28:40.725Z,7.13
2018-12-09T01:31:08.276Z,7.11
2018-12-09T01:33:35.926Z,7.19
2018-12-09T01:36:03.600Z,7.14
2018-12-09T01:38:31.241Z,7.20
2018-12-09T01:40:58.981Z,7.13
2018-12-09T01:43:26.500Z,7.23
2018-12-09T01:45:54.162Z,7.24
2018-12-09T01:48:21.740Z,7.34
2018-12-09T01:50:49.290Z,7.32
2018-12-09T01:53:22.630Z,7.25
2018-12-09T01:55:50.197Z,7.33
2018-12-09T01:58:17.852Z,7.36
2018-12-09T02:00:45.660Z,7.29
2018-12-09T02:03:13.600Z,7.29
2018-12-09T02:05:41.147Z,7.30
2018-12-09T02:08:08.731Z,7.28
2018-12-09T02:10:36.270Z,7.31
2018-12-09T02:13:03.927Z,7.32
2018-12-09T02:15:31.628Z,7.30
2018-12-09T02:17:59.277Z,7.30
2018-12-09T02:20:26.862Z,7.21
2018-12-09T02:22:54.708Z,7.23
2018-12-09T02:25:22.236Z,7.18
2018-12-09T02:27:49.778Z,7.22
2018-12-09T02:30:17.336Z,7.22
2018-12-09T02:32:44.905Z,7.16
2018-12-09T02:35:12.694Z,7.12
2018-12-09T02:37:40.775Z,7.18
2018-12-09T02:40:08.421Z,7.11
2018-12-09T02:42:36.315Z,7.15
2018-12-09T02:45:04.150Z,7.13
2018-12-09T02:47:31.699Z,7.16
2018-12-09T02:49:59.269Z,7.14
2018-12-09T02:52:26.833Z,7.15
2018-12-09T02:54:54.824Z,7.08
2018-12-09T02:57:22.686Z,7.03
2018-12-09T02:59:50.217Z,6.90
2018-12-09T03:02:17.777Z,6.76
2018-12-09T03:04:45.460Z,6.66
2018-12-09T03:07:13.034Z,6.62
2018-12-09T03:09:40.826Z,6.55
2018-12-09T03:12:08.373Z,6.50
2018-12-09T03:14:35.919Z,6.48
2018-12-09T03:17:03.484Z,6.47
2018-12-09T03:19:31.030Z,6.47
2018-12-09T03:21:58.556Z,6.47
2018-12-09T03:24:26.093Z,6.49
2018-12-09T03:26:55.087Z,6.51
2018-12-09T03:29:22.817Z,6.56
2018-12-09T03:31:50.432Z,6.55
2018-12-09T03:34:17.998Z,6.58
2018-12-09T03:36:45.964Z,6.59
2018-12-09T03:39:13.622Z,6.49
2018-12-09T03:41:41.314Z,6.48
2018-12-09T03:44:08.886Z,6.44
2018-12-09T03:46:36.457Z,6.46
2018-12-09T03:49:04.543Z,6.48
2018-12-09T03:51:32.077Z,6.50
2018-12-09T03:53:59.808Z,6.44
2018-12-09T03:56:27.361Z,6.37
2018-12-09T03:58:54.914Z,6.45
2018-12-09T04:01:22.851Z,6.49
2018-12-09T04:03:50.426Z,6.46
2018-12-09T04:06:17.981Z,6.42
2018-12-09T04:08:45.894Z,6.49
2018-12-09T04:11:13.454Z,6.50
2018-12-09T04:13:41.501Z,6.17
2018-12-09T04:16:09.058Z,5.90
2018-12-09T04:18:36.693Z,5.59
2018-12-09T04:21:04.290Z,5.31
2018-12-09T04:23:31.866Z,5.24
2018-12-09T04:25:59.767Z,5.17
2018-12-09T04:28:27.395Z,5.05
2018-12-09T04:30:54.978Z,5.01
2018-12-09T04:33:22.534Z,4.94
2018-12-09T04:35:50.081Z,4.94
2018-12-09T04:38:18.024Z,4.81
2018-12-09T04:40:45.666Z,4.75
2018-12-09T04:43:13.194Z,4.77
2018-12-09T04:45:40.730Z,4.81
2018-12-09T04:48:08.248Z,4.71
2018-12-09T04:50:36.229Z,4.68
2018-12-09T04:53:03.789Z,4.66
2018-12-09T04:55:31.323Z,4.61
2018-12-09T04:57:58.852Z,4.62
2018-12-09T05:00:32.058Z,4.62
2018-12-09T05:02:59.737Z,4.53
2018-12-09T05:05:28.037Z,4.52
2018-12-09T05:07:55.575Z,4.43
2018-12-09T05:10:23.088Z,4.35
2018-12-09T05:12:50.646Z,4.29
2018-12-09T05:15:18.194Z,4.35
2018-12-09T05:17:45.759Z,4.30
2018-12-09T05:20:13.370Z,4.29
2018-12-09T05:22:40.892Z,4.29
2018-12-09T05:25:08.420Z,4.30
2018-12-09T05:27:35.984Z,4.25
2018-12-09T05:30:03.998Z,4.26
2018-12-09T05:32:31.563Z,4.23
2018-12-09T05:34:59.170Z,4.26
2018-12-09T05:37:26.827Z,4.34
2018-12-09T05:39:55.471Z,4.32
2018-12-09T05:42:23.104Z,4.39
2018-12-09T05:44:50.657Z,4.38
2018-12-09T05:47:18.309Z,4.35
2018-12-09T05:49:45.847Z,4.24
2018-12-09T05:52:14.341Z,4.24
2018-12-09T05:54:41.893Z,4.36
2018-12-09T05:57:09.425Z,4.46
2018-12-09T05:59:37.032Z,4.56
2018-12-09T06:02:10.493Z,4.68
2018-12-09T06:04:38.060Z,4.76
2018-12-09T06:07:05.613Z,4.84
2018-12-09T06:09:33.280Z,4.93
2018-12-09T06:12:00.843Z,4.96
2018-12-09T06:14:28.375Z,5.01
2018-12-09T06:16:55.918Z,4.98
2018-12-09T06:19:23.461Z,5.09
2018-12-09T06:21:51.008Z,5.14
2018-12-09T06:24:18.554Z,5.15
2018-12-09T06:26:46.096Z,5.17
2018-12-09T06:29:13.665Z,5.19
2018-12-09T06:31:41.201Z,5.25
2018-12-09T06:34:08.908Z,5.22
2018-12-09T06:36:36.666Z,5.16
2018-12-09T06:39:04.787Z,5.18
2018-12-09T06:41:32.352Z,5.19
2018-12-09T06:43:59.886Z,5.13
2018-12-09T06:46:27.409Z,5.11
2018-12-09T06:48:55.108Z,5.10
2018-12-09T06:51:22.646Z,5.10
2018-12-09T06:53:50.532Z,5.14
2018-12-09T06:56:18.057Z,5.15
2018-12-09T06:58:45.605Z,5.17
2018-12-09T07:01:13.173Z,5.15
2018-12-09T07:03:40.848Z,5.08
2018-12-09T07:06:08.453Z,5.10
2018-12-09T07:08:36.054Z,5.14
2018-12-09T07:11:03.606Z,5.17
2018-12-09T07:13:31.194Z,5.25
2018-12-09T07:15:58.716Z,5.24
2018-12-09T07:18:26.306Z,5.25
2018-12-09T07:20:53.948Z,5.18
2018-12-09T07:23:21.514Z,5.21
2018-12-09T07:25:49.057Z,5.13
2018-12-09T07:28:16.630Z,5.22
2018-12-09T07:30:44.173Z,5.21
2018-12-09T07:33:12.207Z,5.28
2018-12-09T07:35:39.737Z,5.31
2018-12-09T07:38:07.311Z,5.25
2018-12-09T07:40:34.833Z,5.17
2018-12-09T07:43:02.376Z,5.18
2018-12-09T07:45:30.074Z,5.20
2018-12-09T07:47:57.630Z,5.22
2018-12-09T07:50:25.149Z,5.22
2018-12-09T07:52:52.722Z,5.22
2018-12-09T07:55:20.269Z,5.27
2018-12-09T07:57:47.837Z,5.29
2018-12-09T08:00:15.425Z,5.35
2018-12-09T08:02:43.084Z,5.36
2018-12-09T08:05:10.682Z,5.34
2018-12-09T08:07:38.313Z,5.36
2018-12-09T08:10:05.961Z,5.42
2018-12-09T08:12:33.578Z,5.40
2018-12-09T08:15:01.452Z,5.45
2018-12-09T08:17:29.014Z,5.45
2018-12-09T08:19:56.633Z,5.46
2018-12-09T08:22:24.204Z,5.52
2018-12-09T08:24:51.800Z,5.50
2018-12-09T08:27:19.384Z,5.49
2018-12-09T08:29:46.978Z,5.49
2018-12-09T08:32:14.555Z,5.52
2018-12-09T08:34:42.154Z,5.54
2018-12-09T08:37:09.717Z,5.56
2018-12-09T08:39:38.287Z,5.68
2018-12-09T08:42:05.881Z,5.71
2018-12-09T08:44:33.425Z,5.80
2018-12-09T08:47:00.994Z,5.79
2018-12-09T08:49:28.589Z,5.83
2018-12-09T08:51:56.161Z,5.73
2018-12-09T08:54:23.738Z,5.77
2018-12-09T08:56:51.341Z,5.75
2018-12-09T08:59:18.910Z,5.69
2018-12-09T09:01:46.494Z,5.74
2018-12-09T09:04:14.075Z,5.71
2018-12-09T09:06:41.654Z,5.77
2018-12-09T09:09:09.178Z,5.73
2018-12-09T09:11:36.762Z,5.73
2018-12-09T09:14:04.337Z,5.71
2018-12-09T09:16:31.939Z,5.70
2018-12-09T09:18:59.761Z,5.73
2018-12-09T09:21:27.400Z,5.74
2018-12-09T09:23:55.018Z,5.68
2018-12-09T09:26:22.585Z,5.56
2018-12-09T09:28:50.271Z,5.56
2018-12-09T09:31:17.829Z,5.56
2018-12-09T09:33:45.421Z,5.57
2018-12-09T09:36:13.032Z,5.49
2018-12-09T09:38:41.264Z,5.40
2018-12-09T09:41:08.839Z,5.43
2018-12-09T09:43:36.417Z,5.43
2018-12-09T09:46:04.003Z,5.36
2018-12-09T09:48:31.629Z,5.37
2018-12-09T09:50:59.240Z,5.30
2018-12-09T09:53:27.212Z,5.35
2018-12-09T09:55:54.805Z,5.39
2018-12-09T09:58:22.356Z,5.37
2018-12-09T10:00:49.969Z,5.34
2018-12-09T10:03:17.611Z,5.31
2018-12-09T10:05:45.141Z,5.31
2018-12-09T10:08:12.700Z,5.31
2018-12-09T10:10:40.301Z,5.29
2018-12-09T10:13:07.900Z,5.36
2018-12-09T10:15:35.519Z,5.39
2018-12-09T10:18:03.145Z,5.36
2018-12-09T10:20:30.794Z,5.28
2018-12-09T10:22:58.414Z,5.38
2018-12-09T10:25:26.034Z,5.28
2018-12-09T10:27:53.585Z,5.29
2018-12-09T10:30:21.194Z,5.23
2018-12-09T10:32:48.806Z,5.21
2018-12-09T10:35:16.400Z,5.28
2018-12-09T10:37:43.988Z,5.25
2018-12-09T10:40:11.725Z,5.41
2018-12-09T10:42:39.324Z,5.58
2018-12-09T10:45:07.043Z,5.54
2018-12-09T10:47:34.773Z,5.57
2018-12-09T10:50:02.778Z,5.55
2018-12-09T10:52:30.327Z,5.74
2018-12-09T10:54:58.010Z,5.95
2018-12-09T10:57:25.614Z,5.79
2018-12-09T10:59:53.196Z,5.85
2018-12-09T11:02:20.806Z,5.85
2018-12-09T11:04:48.397Z,5.84
2018-12-09T11:07:16.016Z,5.79
2018-12-09T11:09:43.621Z,5.74
2018-12-09T11:12:11.390Z,5.69
2018-12-09T11:14:39.108Z,5.76
2018-12-09T11:17:06.747Z,5.75
2018-12-09T11:19:34.325Z,5.66
2018-12-09T11:22:02.056Z,5.53
2018-12-09T11:24:29.627Z,5.54
2018-12-09T11:26:57.498Z,5.68
2018-12-09T11:29:25.164Z,5.69
2018-12-09T11:31:52.773Z,5.71
2018-12-09T11:34:20.350Z,5.69
2018-12-09T11:36:47.921Z,5.68
2018-12-09T11:39:16.394Z,5.73
2018-12-09T11:41:43.992Z,5.40
2018-12-09T11:44:11.565Z,5.42
2018-12-09T11:46:39.135Z,5.42
2018-12-09T11:49:06.759Z,5.26
2018-12-09T11:51:34.303Z,5.31
2018-12-09T11:54:02.535Z,5.35
2018-12-09T11:56:30.158Z,5.34
2018-12-09T11:58:57.723Z,5.37
2018-12-09T12:01:25.659Z,5.32
2018-12-09T12:03:53.274Z,5.36
2018-12-09T12:06:20.849Z,5.25
2018-12-09T12:08:48.473Z,5.30
2018-12-09T12:11:16.022Z,5.28
2018-12-09T12:13:43.636Z,5.26
2018-12-09T12:16:11.266Z,5.09
2018-12-09T12:18:38.905Z,5.10
2018-12-09T12:21:06.514Z,4.96
2018-12-09T12:23:34.094Z,4.90
2018-12-09T12:26:01.886Z,4.81
2018-12-09T12:28:29.772Z,4.77
2018-12-09T12:30:57.404Z,4.90
2018-12-09T12:33:25.331Z,4.92
2018-12-09T12:35:53.039Z,4.82
2018-12-09T12:38:20.669Z,4.81
2018-12-09T12:40:48.959Z,4.78
2018-12-09T12:43:16.603Z,4.75
2018-12-09T12:45:44.425Z,4.75
2018-12-09T12:48:12.019Z,4.68
2018-12-09T12:50:39.871Z,4.62
2018-12-09T12:53:07.547Z,4.57
2018-12-09T12:55:35.150Z,4.56
2018-12-09T12:58:02.776Z,4.61
2018-12-09T13:00:30.429Z,4.60
2018-12-09T13:02:58.024Z,4.56
2018-12-09T13:05:25.607Z,4.62
2018-12-09T13:07:53.203Z,4.62
2018-12-09T13:10:20.815Z,4.71
2018-12-09T13:12:48.465Z,4.74
2018-12-09T13:15:16.083Z,4.83
2018-12-09T13:17:43.684Z,4.88
2018-12-09T13:20:11.320Z,4.91
2018-12-09T13:22:38.933Z,5.04
2018-12-09T13:25:06.847Z,5.09
2018-12-09T13:27:34.436Z,5.08
2018-12-09T13:30:02.140Z,5.10
2018-12-09T13:32:30.110Z,5.10
2018-12-09T13:34:57.739Z,5.11
2018-12-09T13:37:25.330Z,5.18
2018-12-09T13:39:52.961Z,5.19
2018-12-09T13:42:20.575Z,5.24
2018-12-09T13:44:48.158Z,5.19
2018-12-09T13:47:32.284Z,5.08
2018-12-09T13:50:00.798Z,5.14
2018-12-09T13:52:30.123Z,5.11
2018-12-09T13:54:57.822Z,5.05
2018-12-09T13:57:25.393Z,5.04
2018-12-09T13:59:53.962Z,5.15
2018-12-09T14:02:21.584Z,5.08
2018-12-09T14:04:49.242Z,5.07
2018-12-09T14:07:16.873Z,5.07
2018-12-09T14:09:44.597Z,5.05
2018-12-09T14:12:12.170Z,5.08
2018-12-09T14:14:39.804Z,5.05
2018-12-09T14:17:07.591Z,5.06
2018-12-09T14:19:35.151Z,5.05
2018-12-09T14:22:03.115Z,5.01
2018-12-09T14:24:30.838Z,5.04
2018-12-09T14:26:58.401Z,5.10
2018-12-09T14:29:26.017Z,5.06
2018-12-09T14:31:53.860Z,5.01
2018-12-09T14:34:21.425Z,4.98
2018-12-09T14:36:49.055Z,4.98
2018-12-09T14:39:17.049Z,4.91
2018-12-09T14:41:44.633Z,4.89
2018-12-09T14:44:12.206Z,4.90
2018-12-09T14:46:40.133Z,4.87
2018-12-09T14:49:07.719Z,4.89
2018-12-09T14:51:35.299Z,4.86
2018-12-09T14:54:03.326Z,4.92
2018-12-09T14:56:30.915Z,4.82
2018-12-09T14:58:58.665Z,4.81
2018-12-09T15:01:26.359Z,4.81
2018-12-09T15:03:53.923Z,4.67
2018-12-09T15:06:21.453Z,4.62
2018-12-09T15:08:49.073Z,4.59
2018-12-09T15:11:16.636Z,4.65
2018-12-09T15:13:44.272Z,4.58
2018-12-09T15:16:11.890Z,4.59
2018-12-09T15:18:39.457Z,4.65
2018-12-09T15:21:07.084Z,4.58
2018-12-09T15:23:34.698Z,4.62
2018-12-09T15:26:02.264Z,4.66
2018-12-09T15:28:29.927Z,4.61
2018-12-09T15:30:57.534Z,4.59
2018-12-09T15:33:25.110Z,4.56
2018-12-09T15:35:52.848Z,4.53
2018-12-09T15:38:20.469Z,4.54
2018-12-09T15:40:48.049Z,4.54
2018-12-09T15:43:15.622Z,4.49
2018-12-09T15:45:43.216Z,4.49
2018-12-09T15:48:11.193Z,4.53
2018-12-09T15:50:38.790Z,4.56
2018-12-09T15:53:07.399Z,4.52
2018-12-09T15:55:35.090Z,4.50
2018-12-09T15:58:02.687Z,4.56
2018-12-09T16:00:39.714Z,4.63
2018-12-09T16:03:07.338Z,4.68
2018-12-09T16:05:34.937Z,4.73
2018-12-09T16:08:02.526Z,4.75
2018-12-09T16:10:30.099Z,4.86
2018-12-09T16:12:57.687Z,4.95
2018-12-09T16:15:25.263Z,4.91
2018-12-09T16:17:54.763Z,5.04
2018-12-09T16:20:22.708Z,4.94
2018-12-09T16:22:50.279Z,4.98
2018-12-09T16:25:17.861Z,5.04
2018-12-09T16:27:45.481Z,5.01
2018-12-09T16:30:13.062Z,5.03
2018-12-09T16:32:40.712Z,4.99
2018-12-09T16:35:08.828Z,4.93
2018-12-09T16:37:36.454Z,4.96
2018-12-09T16:40:04.710Z,4.94
2018-12-09T16:42:32.314Z,4.92
2018-12-09T16:44:59.895Z,4.93
2018-12-09T16:47:27.498Z,4.93
2018-12-09T16:49:55.086Z,5.03
2018-12-09T16:52:23.069Z,5.04
2018-12-09T16:54:50.645Z,4.94
2018-12-09T16:57:18.404Z,4.96
2018-12-09T16:59:46.311Z,4.95
2018-12-09T17:02:13.934Z,4.94
2018-12-09T17:04:41.546Z,4.94
2018-12-09T17:07:09.234Z,4.90
2018-12-09T17:09:36.803Z,4.94
2018-12-09T17:12:04.467Z,5.04
2018-12-09T17:14:32.212Z,4.98
2018-12-09T17:17:00.226Z,4.98
2018-12-09T17:19:27.840Z,4.95
2018-12-09T17:21:55.470Z,4.97
2018-12-09T17:24:23.144Z,4.98
2018-12-09T17:26:50.844Z,5.00
2018-12-09T17:29:18.369Z,4.96
2018-12-09T17:31:46.264Z,5.00
2018-12-09T17:34:13.894Z,5.03
2018-12-09T17:36:41.591Z,5.03
2018-12-09T17:39:09.337Z,5.05
2018-12-09T17:41:36.929Z,5.03
2018-12-09T17:44:04.490Z,5.02
2018-12-09T17:46:32.077Z,5.02
2018-12-09T17:48:59.671Z,5.02
2018-12-09T17:51:27.197Z,5.03
2018-12-09T17:53:54.866Z,5.11
2018-12-09T17:56:22.774Z,5.08
2018-12-09T17:58:50.370Z,5.08
2018-12-09T18:01:18.315Z,5.13
2018-12-09T18:03:45.946Z,5.14
2018-12-09T18:06:13.531Z,5.13
2018-12-09T18:08:41.149Z,5.15
2018-12-09T18:11:08.730Z,5.25
2018-12-09T18:13:36.348Z,5.20
2018-12-09T18:16:04.527Z,5.14
2018-12-09T18:18:32.224Z,5.11
2018-12-09T18:21:00.221Z,5.15
2018-12-09T18:23:27.858Z,5.18
2018-12-09T18:25:55.453Z,5.08
2018-12-09T18:28:23.081Z,5.14
2018-12-09T18:30:51.001Z,5.17
2018-12-09T18:33:19.013Z,5.23
2018-12-09T18:35:46.620Z,5.17
2018-12-09T18:38:14.338Z,5.21
2018-12-09T18:40:41.948Z,5.19
2018-12-09T18:43:09.542Z,5.28
2018-12-09T18:45:37.118Z,5.26
2018-12-09T18:48:04.720Z,5.21
2018-12-09T18:50:32.280Z,5.22
2018-12-09T18:52:59.869Z,5.30
2018-12-09T18:55:27.444Z,5.19
2018-12-09T18:57:54.985Z,5.15
2018-12-09T19:00:22.637Z,5.16
2018-12-09T19:02:50.249Z,5.22
2018-12-09T19:05:17.834Z,5.21
2018-12-09T19:07:45.683Z,5.23
2018-12-09T19:10:13.228Z,5.18
2018-12-09T19:12:40.828Z,5.20
2018-12-09T19:15:08.432Z,5.17
2018-12-09T19:17:36.032Z,5.26
2018-12-09T19:20:03.726Z,5.25
2018-12-09T19:22:31.369Z,5.26
2018-12-09T19:24:59.029Z,5.26
2018-12-09T19:27:26.644Z,5.27
2018-12-09T19:29:54.297Z,5.27
2018-12-09T19:32:21.918Z,5.28
2018-12-09T19:34:49.519Z,5.23
2018-12-09T19:37:17.117Z,5.16
2018-12-09T19:39:44.775Z,5.15
2018-12-09T19:42:12.429Z,5.10
2018-12-09T19:44:40.002Z,5.15
2018-12-09T19:47:07.621Z,5.08
2018-12-09T19:49:35.248Z,5.10
2018-12-09T19:52:03.052Z,5.09
2018-12-09T19:54:30.649Z,5.06
2018-12-09T19:56:58.276Z,5.05
2018-12-09T19:59:25.835Z,5.08
2018-12-09T20:01:53.693Z,5.16
2018-12-09T20:04:21.303Z,5.09
2018-12-09T20:06:48.940Z,5.00
2018-12-09T20:09:16.547Z,4.94
2018-12-09T20:11:44.158Z,4.91
2018-12-09T20:14:11.769Z,4.89
2018-12-09T20:16:39.414Z,4.87
2018-12-09T20:19:06.992Z,4.92
2018-12-09T20:21:34.559Z,4.93
2018-12-09T20:24:02.230Z,4.94
2018-12-09T20:26:29.966Z,4.91
2018-12-09T20:28:57.586Z,4.80
2018-12-09T20:31:25.146Z,4.80
2018-12-09T20:33:53.215Z,4.84
2018-12-09T20:36:20.827Z,4.84
2018-12-09T20:38:48.369Z,4.84
2018-12-09T20:41:16.306Z,4.79
2018-12-09T20:43:43.892Z,4.80
2018-12-09T20:46:11.505Z,4.84
2018-12-09T20:48:39.139Z,4.83
2018-12-09T20:51:07.233Z,4.93
2018-12-09T20:53:34.857Z,4.84
2018-12-09T20:56:02.450Z,4.80
2018-12-09T20:58:30.066Z,4.75
2018-12-09T21:00:57.645Z,4.85
2018-12-09T21:03:25.268Z,4.85
2018-12-09T21:05:52.895Z,4.86
2018-12-09T21:08:20.529Z,4.86
2018-12-09T21:10:48.123Z,4.88
2018-12-09T21:13:15.962Z,4.88
2018-12-09T21:15:43.615Z,4.89
2018-12-09T21:18:11.215Z,4.91
2018-12-09T21:20:38.830Z,4.91
2018-12-09T21:23:06.432Z,4.91
2018-12-09T21:25:34.036Z,4.89
2018-12-09T21:28:01.622Z,4.83
2018-12-09T21:30:29.280Z,4.73
2018-12-09T21:32:56.838Z,4.74
2018-12-09T21:35:24.413Z,4.63
2018-12-09T21:37:51.990Z,4.66
2018-12-09T21:40:19.555Z,4.61
2018-12-09T21:42:47.194Z,4.58
2018-12-09T21:45:14.789Z,4.55
2018-12-09T21:47:42.411Z,4.65
2018-12-09T21:50:10.011Z,4.64
2018-12-09T21:52:37.597Z,4.63
2018-12-09T21:55:05.510Z,4.55
2018-12-09T21:57:33.222Z,4.50
2018-12-09T22:00:00.785Z,4.50
2018-12-09T22:02:28.361Z,4.40
2018-12-09T22:04:56.005Z,4.42
2018-12-09T22:07:23.546Z,4.40
2018-12-09T22:09:51.218Z,4.29
2018-12-09T22:12:19.053Z,4.38
2018-12-09T22:14:46.778Z,4.32
2018-12-09T22:17:14.533Z,4.21
2018-12-09T22:19:42.230Z,4.30
2018-12-09T22:22:09.819Z,4.24
2018-12-09T22:24:37.432Z,4.31
2018-12-09T22:27:05.018Z,4.26
2018-12-09T22:29:32.577Z,4.26
2018-12-09T22:32:00.207Z,4.32
2018-12-09T22:34:27.802Z,4.32
2018-12-09T22:36:55.415Z,4.28
2018-12-09T22:39:22.975Z,4.38
2018-12-09T22:41:50.526Z,4.31
2018-12-09T22:44:18.079Z,4.36
2018-12-09T22:46:45.637Z,4.30
2018-12-09T22:49:13.219Z,4.30
2018-12-09T22:51:40.817Z,4.27
2018-12-09T22:54:08.365Z,4.23
2018-12-09T22:56:35.945Z,4.19
2018-12-09T22:59:03.537Z,4.18
2018-12-09T23:01:31.166Z,4.17
2018-12-09T23:03:58.862Z,4.26
2018-12-09T23:06:26.448Z,4.28
2018-12-09T23:08:54.294Z,4.25
2018-12-09T23:11:21.857Z,4.33
2018-12-09T23:13:49.873Z,4.28
2018-12-09T23:16:17.560Z,4.25
2018-12-09T23:18:45.144Z,4.23
2018-12-09T23:21:12.719Z,4.21
2018-12-09T23:23:40.258Z,4.12
2018-12-09T23:26:07.920Z,4.02
2018-12-09T23:28:35.490Z,4.05
2018-12-09T23:31:03.377Z,3.93
2018-12-09T23:33:30.952Z,4.00
2018-12-09T23:35:58.480Z,4.02
2018-12-09T23:38:26.069Z,3.93
2018-12-09T23:40:53.634Z,3.92
2018-12-09T23:43:21.199Z,3.88
2018-12-09T23:45:48.769Z,3.93
2018-12-09T23:48:16.299Z,3.89
2018-12-09T23:50:43.860Z,3.97
2018-12-09T23:53:11.423Z,3.96
2018-12-09T23:55:39.009Z,3.87
2018-12-09T23:58:06.552Z,3.96
